Time;durP1;ratioP1;P1;durP2;ratioP2;P2;SDS_P1;SDS_P2;PMS_P1;PMS_P2;Temp;Humidity;BMP_temperature;BMP_pressure;BME280_temperature;BME280_humidity;BME280_pressure;Samples;Min_cycle;Max_cycle;Signal;HPM_P1;HPM_P2
2023/08/10 04:01:25;;;;;;;;;;;;;;;-144.99;nan;52423.63;5045627;22;19980;-67
2023/08/10 04:03:51;;;;;;;;;;;;;;;-144.99;nan;52431.78;5051920;28;20034;-68
2023/08/10 04:06:18;;;;;;;;;;;;;;;-144.99;nan;52452.16;5036831;28;19953;-68
2023/08/10 04:08:44;;;;;;;;;;;;;;;-144.99;nan;52427.72;5039878;28;19984;-68
2023/08/10 04:11:11;;;;;;;;;;;;;;;-144.99;nan;52431.78;5045184;28;19997;-68
2023/08/10 04:13:37;;;;;;;;;;;;;;;-144.99;nan;52452.16;5044505;28;19948;-68
2023/08/10 04:16:04;;;;;;;;;;;;;;;-144.99;nan;52460.31;5041770;28;19945;-68
2023/08/10 04:18:33;;;;;;;;;;;;;;;-144.99;nan;52441.97;5041849;28;19993;-64
2023/08/10 04:21:00;;;;;;;;;;;;;;;-144.99;nan;52448.09;5056144;28;19962;-72
2023/08/10 04:23:27;;;;;;;;;;;;;;;-144.99;nan;52448.09;5061375;28;19955;-72
2023/08/10 04:25:53;;;;;;;;;;;;;;;-144.99;nan;52441.97;5054564;28;19949;-71
2023/08/10 04:28:20;;;;;;;;;;;;;;;-144.99;nan;52456.25;5047865;28;19953;-72
2023/08/10 04:30:46;;;;;;;;;;;;;;;-144.99;nan;52464.41;5054261;28;19981;-72
2023/08/10 04:33:13;;;;;;;;;;;;;;;-144.99;nan;52439.94;5044412;28;20015;-72
2023/08/10 04:35:41;;;;;;;;;;;;;;;-144.99;nan;52409.38;5042494;28;20428;-71
2023/08/10 04:38:09;;;;;;;;;;;;;;;-144.99;nan;52439.94;5051667;28;20400;-71
2023/08/10 04:40:36;;;;;;;;;;;;;;;-144.99;nan;52452.16;5049344;28;19946;-71
2023/08/10 04:43:03;;;;;;;;;;;;;;;-144.99;nan;52435.88;5047991;28;20008;-71
2023/08/10 04:45:30;;;;;;;;;;;;;;;-144.99;nan;52444.03;5044380;28;19946;-71
2023/08/10 04:47:56;;;;;;;;;;;;;;;-144.99;nan;52427.72;5046059;28;20672;-66
2023/08/10 04:50:23;;;;;;;;;;;;;;;-144.99;nan;52464.41;5038308;28;19999;-67
2023/08/10 04:52:51;;;;;;;;;;;;;;;-144.99;nan;52439.94;5043496;28;20002;-66
2023/08/10 04:55:18;;;;;;;;;;;;;;;-144.99;nan;52427.72;5045768;28;19954;-68
2023/08/10 04:57:45;;;;;;;;;;;;;;;-144.99;nan;52431.78;5058448;28;20408;-68
2023/08/10 05:00:13;;;;;;;;;;;;;;;-144.99;nan;52423.63;5062485;28;20045;-68
2023/08/10 05:02:40;;;;;;;;;;;;;;;-144.99;nan;52409.38;5057689;28;20377;-67
2023/08/10 05:05:07;;;;;;;;;;;;;;;-144.99;nan;52421.59;5064259;28;19970;-67
2023/08/10 05:07:33;;;;;;;;;;;;;;;-144.99;nan;52431.78;5058705;28;19944;-67
2023/08/10 05:10:04;;;;;;;;;;;;;;;-144.99;nan;52444.03;5049766;28;19943;-67
2023/08/10 05:12:31;;;;;;;;;;;;;;;-144.99;nan;52399.19;5048166;28;19961;-68
2023/08/10 05:14:57;;;;;;;;;;;;;;;-144.99;nan;52423.63;5050863;28;19994;-67
2023/08/10 05:17:24;;;;;;;;;;;;;;;-144.99;nan;52448.09;5039558;28;19994;-68
2023/08/10 05:19:50;;;;;;;;;;;;;;;-144.99;nan;52386.94;5050933;28;19951;-67
2023/08/10 05:22:17;;;;;;;;;;;;;;;-144.99;nan;52423.63;5050710;28;19969;-67
2023/08/10 05:24:43;;;;;;;;;;;;;;;-144.99;nan;52423.63;5050292;28;20009;-67
2023/08/10 05:27:11;;;;;;;;;;;;;;;-144.99;nan;52431.78;5039181;28;20072;-67
2023/08/10 05:29:37;;;;;;;;;;;;;;;-144.99;nan;52386.94;5049664;28;19950;-67
2023/08/10 05:32:04;;;;;;;;;;;;;;;-144.99;nan;52429.75;5047524;28;20015;-67
2023/08/10 05:34:31;;;;;;;;;;;;;;;-144.99;nan;52435.88;5049978;28;19944;-67
2023/08/10 05:36:58;;;;;;;;;;;;;;;-144.99;nan;52409.38;5049102;28;20413;-67
2023/08/10 05:39:25;;;;;;;;;;;;;;;-144.99;nan;52419.56;5044707;28;20362;-69
2023/08/10 05:41:51;;;;;;;;;;;;;;;-144.99;nan;52433.81;5034779;28;19964;-70
2023/08/10 05:44:19;;;;;;;;;;;;;;;-144.99;nan;52431.78;5044749;28;20006;-68
2023/08/10 05:46:47;;;;;;;;;;;;;;;-144.99;nan;52427.72;5048765;28;19949;-71
2023/08/10 05:49:13;;;;;;;;;;;;;;;-144.99;nan;52429.75;5044180;28;19953;-68
2023/08/10 05:51:40;;;;;;;;;;;;;;;-144.99;nan;52386.94;5045601;28;20017;-68
2023/08/10 05:54:07;;;;;;;;;;;;;;;-144.99;nan;52399.19;5049444;28;19978;-68
2023/08/10 05:56:33;;;;;;;;;;;;;;;-144.99;nan;52372.69;5046521;28;20037;-68
2023/08/10 05:59:01;;;;;;;;;;;;;;;-144.99;nan;52419.56;5041361;28;20026;-69
2023/08/10 06:01:29;;;;;;;;;;;;;;;-144.99;nan;52427.72;5040971;28;20458;-68
2023/08/10 06:03:55;;;;;;;;;;;;;;;-144.99;nan;52391.03;5038324;28;20031;-73
2023/08/10 06:06:22;;;;;;;;;;;;;;;-144.99;nan;52427.72;5048258;28;20042;-68
2023/08/10 06:08:49;;;;;;;;;;;;;;;-144.99;nan;52425.66;5043102;28;20000;-69
2023/08/10 06:11:15;;;;;;;;;;;;;;;-144.99;nan;52395.09;5041639;28;20219;-70
2023/08/10 06:13:42;;;;;;;;;;;;;;;-144.99;nan;52401.22;5042414;28;19948;-69
2023/08/10 06:16:08;;;;;;;;;;;;;;;-144.99;nan;52362.50;5047912;28;19944;-69
2023/08/10 06:18:36;;;;;;;;;;;;;;;-144.99;nan;52403.25;5048799;28;20523;-69
2023/08/10 06:21:03;;;;;;;;;;;;;;;-144.99;nan;52419.56;5044642;28;19993;-69
2023/08/10 06:23:30;;;;;;;;;;;;;;;-144.99;nan;52395.09;5042054;28;20401;-69
2023/08/10 06:25:57;;;;;;;;;;;;;;;-144.99;nan;52380.84;5040755;28;19944;-69
2023/08/10 06:28:24;;;;;;;;;;;;;;;-144.99;nan;52370.63;5043610;28;19943;-69
2023/08/10 06:30:51;;;;;;;;;;;;;;;-144.99;nan;52433.81;5038107;28;19950;-70
2023/08/10 06:33:19;;;;;;;;;;;;;;;-144.99;nan;52423.63;5046565;28;19951;-70
2023/08/10 06:35:46;;;;;;;;;;;;;;;-144.99;nan;52431.78;5039264;28;19955;-69
2023/08/10 06:38:13;;;;;;;;;;;;;;;-144.99;nan;52391.03;5039012;28;20404;-69
2023/08/10 06:40:40;;;;;;;;;;;;;;;-144.99;nan;52374.72;5034064;28;20307;-70
2023/08/10 06:43:07;;;;;;;;;;;;;;;-144.99;nan;52393.06;5038591;28;20338;-69
2023/08/10 06:45:33;;;;;;;;;;;;;;;-144.99;nan;52393.06;5036471;28;20009;-68
2023/08/10 06:48:00;;;;;;;;;;;;;;;-144.99;nan;52350.25;5042061;28;20049;-69
2023/08/10 06:50:26;;;;;;;;;;;;;;;-144.99;nan;52358.41;5031411;28;19949;-69
2023/08/10 06:52:55;;;;;;;;;;;;;;;-144.99;nan;52342.09;5037832;28;19967;-69
2023/08/10 06:55:22;;;;;;;;;;;;;;;-144.99;nan;52354.34;5043491;28;20347;-68
2023/08/10 06:57:48;;;;;;;;;;;;;;;-144.99;nan;52331.91;5042723;28;19956;-69
2023/08/10 07:00:19;;;;;;;;;;;;;;;-144.99;nan;52313.56;5053387;28;20042;-69
2023/08/10 07:02:48;;;;;;;;;;;;;;;-144.99;nan;52417.53;5050334;28;19968;-70
2023/08/10 07:05:15;;;;;;;;;;;;;;;-144.99;nan;52399.19;5040692;28;19965;-69
2023/08/10 07:07:42;;;;;;;;;;;;;;;-144.99;nan;52366.56;5042581;28;20005;-68
2023/08/10 07:10:10;;;;;;;;;;;;;;;-144.99;nan;52346.19;5043637;28;20059;-69
2023/08/10 07:12:36;;;;;;;;;;;;;;;-144.99;nan;52342.09;5052490;28;19974;-70
2023/08/10 07:15:03;;;;;;;;;;;;;;;-144.99;nan;52309.50;5049396;28;19993;-70
2023/08/10 07:17:30;;;;;;;;;;;;;;;-144.99;nan;52329.88;5039197;28;20021;-68
2023/08/10 07:19:56;;;;;;;;;;;;;;;-144.99;nan;52350.25;5043283;28;20001;-67
2023/08/10 07:22:23;;;;;;;;;;;;;;;-144.99;nan;52370.63;5038664;28;20011;-70
2023/08/10 07:24:49;;;;;;;;;;;;;;;-144.99;nan;52321.72;5037447;28;19971;-70
2023/08/10 07:27:18;;;;;;;;;;;;;;;-144.99;nan;52342.09;5048957;28;20005;-70
2023/08/10 07:29:44;;;;;;;;;;;;;;;-144.99;nan;52317.66;5044982;28;20047;-70
2023/08/10 07:32:11;;;;;;;;;;;;;;;-144.99;nan;52333.94;5046742;28;19972;-69
2023/08/10 07:34:37;;;;;;;;;;;;;;;-144.99;nan;52356.38;5036575;28;19956;-71
2023/08/10 07:37:04;;;;;;;;;;;;;;;-144.99;nan;52358.41;5043745;28;20013;-71
2023/08/10 07:39:30;;;;;;;;;;;;;;;-144.99;nan;52329.88;5050094;28;19958;-70
2023/08/10 07:41:57;;;;;;;;;;;;;;;-144.99;nan;52358.41;5040362;28;19962;-70
2023/08/10 07:44:25;;;;;;;;;;;;;;;-144.99;nan;52374.72;5040213;28;19966;-69
2023/08/10 07:46:51;;;;;;;;;;;;;;;-144.99;nan;52342.09;5049497;28;20013;-71
2023/08/10 07:49:18;;;;;;;;;;;;;;;-144.99;nan;52321.72;5046997;28;20039;-69
2023/08/10 07:51:47;;;;;;;;;;;;;;;-144.99;nan;52358.41;5048377;28;20059;-70
2023/08/10 07:54:13;;;;;;;;;;;;;;;-144.99;nan;52350.25;5040357;28;20126;-69
2023/08/10 07:56:40;;;;;;;;;;;;;;;-144.99;nan;52329.88;5042941;28;20368;-70
2023/08/10 07:59:06;;;;;;;;;;;;;;;-144.99;nan;52311.53;5049141;28;19985;-68
2023/08/10 08:01:34;;;;;;;;;;;;;;;-144.99;nan;52331.91;5042864;28;20419;-71
2023/08/10 08:04:00;;;;;;;;;;;;;;;-144.99;nan;52317.66;5035605;28;19955;-71
2023/08/10 08:06:27;;;;;;;;;;;;;;;-144.99;nan;52299.31;5044609;28;19944;-69
2023/08/10 08:08:53;;;;;;;;;;;;;;;-144.99;nan;52342.09;5037676;28;19955;-71
2023/08/10 08:11:20;;;;;;;;;;;;;;;-144.99;nan;52342.09;5051066;28;20459;-71
2023/08/10 08:13:46;;;;;;;;;;;;;;;-144.99;nan;52329.88;5051398;28;20030;-69
2023/08/10 08:16:13;;;;;;;;;;;;;;;-144.99;nan;52280.97;5044979;28;20411;-70
2023/08/10 08:18:45;;;;;;;;;;;;;;;-144.99;nan;52317.66;5050397;28;19958;-70
2023/08/10 08:21:12;;;;;;;;;;;;;;;-144.99;nan;52301.34;5040196;28;20503;-71
2023/08/10 08:23:39;;;;;;;;;;;;;;;-144.99;nan;52321.72;5045646;28;20054;-71
2023/08/10 08:26:05;;;;;;;;;;;;;;;-144.99;nan;52325.81;5051175;28;19976;-70
2023/08/10 08:28:32;;;;;;;;;;;;;;;-144.99;nan;52305.41;5049802;28;20013;-70
2023/08/10 08:30:58;;;;;;;;;;;;;;;-144.99;nan;52317.66;5039182;28;19991;-70
2023/08/10 08:33:25;;;;;;;;;;;;;;;-144.99;nan;52321.72;5046668;28;20396;-69
2023/08/10 08:35:53;;;;;;;;;;;;;;;-144.99;nan;52354.34;5049929;28;20110;-71
2023/08/10 08:38:19;;;;;;;;;;;;;;;-144.99;nan;52323.75;5045341;28;19979;-71
2023/08/10 08:40:48;;;;;;;;;;;;;;;-144.99;nan;52358.41;5051537;28;19976;-69
2023/08/10 08:43:15;;;;;;;;;;;;;;;-144.99;nan;52329.88;5038861;28;20006;-70
2023/08/10 08:45:41;;;;;;;;;;;;;;;-144.99;nan;52268.72;5041396;28;19929;-71
2023/08/10 08:48:09;;;;;;;;;;;;;;;-144.99;nan;52276.88;5048444;28;20027;-70
2023/08/10 08:50:36;;;;;;;;;;;;;;;-144.99;nan;52297.25;5052487;28;20307;-70
2023/08/10 08:53:05;;;;;;;;;;;;;;;-144.99;nan;52260.56;5042364;28;19925;-71
2023/08/10 08:55:32;;;;;;;;;;;;;;;-144.99;nan;52313.56;5043178;28;19956;-70
2023/08/10 08:57:59;;;;;;;;;;;;;;;-144.99;nan;52289.13;5040863;28;20492;-70
2023/08/10 09:00:25;;;;;;;;;;;;;;;-144.99;nan;52313.56;5047158;28;19964;-71
2023/08/10 09:02:52;;;;;;;;;;;;;;;-144.99;nan;52317.66;5047075;28;19969;-72
2023/08/10 09:05:19;;;;;;;;;;;;;;;-144.99;nan;52321.72;5036674;28;20001;-71
2023/08/10 09:07:46;;;;;;;;;;;;;;;-144.99;nan;52354.34;5045326;28;19980;-71
2023/08/10 09:10:14;;;;;;;;;;;;;;;-144.99;nan;52313.56;5049452;28;20085;-70
2023/08/10 09:12:41;;;;;;;;;;;;;;;-144.99;nan;52325.81;5046315;28;20388;-71
2023/08/10 09:15:09;;;;;;;;;;;;;;;-144.99;nan;52297.25;5040801;28;20267;-71
2023/08/10 09:17:39;;;;;;;;;;;;;;;-144.99;nan;52305.41;5040689;28;19980;-71
2023/08/10 09:20:08;;;;;;;;;;;;;;;-144.99;nan;52297.25;5042340;28;20029;-71
2023/08/10 09:22:35;;;;;;;;;;;;;;;-144.99;nan;52313.56;5037455;28;20416;-70
2023/08/10 09:25:02;;;;;;;;;;;;;;;-144.99;nan;52313.56;5049001;28;19970;-70
2023/08/10 09:27:31;;;;;;;;;;;;;;;-144.99;nan;52313.56;5040920;28;19924;-70
2023/08/10 09:29:58;;;;;;;;;;;;;;;-144.99;nan;52338.03;5038369;28;19931;-70
2023/08/10 09:32:25;;;;;;;;;;;;;;;-144.99;nan;52333.94;5043617;28;20353;-70
2023/08/10 09:34:52;;;;;;;;;;;;;;;-144.99;nan;52315.59;5037772;28;19969;-70
2023/08/10 09:37:19;;;;;;;;;;;;;;;-144.99;nan;52291.16;5039049;28;20378;-70
2023/08/10 09:39:45;;;;;;;;;;;;;;;-144.99;nan;52293.19;5031468;28;20035;-70
2023/08/10 09:42:12;;;;;;;;;;;;;;;-144.99;nan;52309.50;5042675;28;20065;-71
2023/08/10 09:44:46;;;;;;;;;;;;;;;-144.99;nan;52309.50;5043074;28;19975;-70
2023/08/10 09:47:14;;;;;;;;;;;;;;;-144.99;nan;52301.34;5032965;28;19955;-70
2023/08/10 09:49:46;;;;;;;;;;;;;;;-144.99;nan;52309.50;5042810;28;19953;-69
2023/08/10 09:52:12;;;;;;;;;;;;;;;-144.99;nan;52252.44;5049547;28;19978;-70
2023/08/10 09:54:39;;;;;;;;;;;;;;;-144.99;nan;52309.50;5043353;28;19984;-70
2023/08/10 09:57:06;;;;;;;;;;;;;;;-144.99;nan;52309.50;5048896;28;20404;-70
2023/08/10 09:59:33;;;;;;;;;;;;;;;-144.99;nan;52260.56;5048532;28;19993;-71
2023/08/10 10:02:01;;;;;;;;;;;;;;;-144.99;nan;52252.44;5031976;28;19965;-70
2023/08/10 10:04:28;;;;;;;;;;;;;;;-144.99;nan;52289.13;5043448;28;19950;-70
2023/08/10 10:06:56;;;;;;;;;;;;;;;-144.99;nan;52313.56;5041571;28;20381;-71
2023/08/10 10:09:23;;;;;;;;;;;;;;;-144.99;nan;52270.78;5041828;28;20228;-70
2023/08/10 10:11:50;;;;;;;;;;;;;;;-144.99;nan;52311.53;5049301;28;20018;-71
2023/08/10 10:14:17;;;;;;;;;;;;;;;-144.99;nan;52254.47;5045365;28;19988;-70
2023/08/10 10:16:44;;;;;;;;;;;;;;;-144.99;nan;52264.66;5041977;28;20009;-70
2023/08/10 10:19:12;;;;;;;;;;;;;;;-144.99;nan;52258.53;5037552;28;20010;-70
2023/08/10 10:21:38;;;;;;;;;;;;;;;-144.99;nan;52260.56;5043072;28;20058;-70
2023/08/10 10:24:06;;;;;;;;;;;;;;;-144.99;nan;52248.34;5041840;28;19952;-71
2023/08/10 10:26:32;;;;;;;;;;;;;;;-144.99;nan;52211.66;5036758;28;20199;-71
2023/08/10 10:29:11;;;;;;;;;;;;;;;-144.99;nan;52236.13;5045176;28;20127;-70
2023/08/10 10:31:38;;;;;;;;;;;;;;;-144.99;nan;52252.44;5044645;28;20315;-71
2023/08/10 10:34:05;;;;;;;;;;;;;;;-144.99;nan;52276.88;5053872;28;19951;-70
2023/08/10 10:36:33;;;;;;;;;;;;;;;-144.99;nan;52191.28;5054809;28;19953;-70
2023/08/10 10:39:04;;;;;;;;;;;;;;;-144.99;nan;52248.34;5051556;28;19948;-70
2023/08/10 10:41:31;;;;;;;;;;;;;;;-144.99;nan;52211.66;5041603;28;20011;-69
2023/08/10 10:43:58;;;;;;;;;;;;;;;-144.99;nan;52317.66;5054227;28;19988;-70
2023/08/10 10:46:38;;;;;;;;;;;;;;;-144.99;nan;52189.25;5050025;28;20048;-70
2023/08/10 10:49:09;;;;;;;;;;;;;;;-144.99;nan;52268.72;5042063;28;19951;-70
2023/08/10 10:51:49;;;;;;;;;;;;;;;-144.99;nan;52174.97;5049934;28;19963;-70
2023/08/10 10:54:15;;;;;;;;;;;;;;;-144.99;nan;52191.28;5041574;28;19947;-70
2023/08/10 10:56:42;;;;;;;;;;;;;;;-144.99;nan;52126.06;4349854;28;10000785;-70
2023/08/10 10:59:09;;;;;;;;;;;;;;;-144.99;nan;52121.97;5033376;28;20466;-70
2023/08/10 11:01:36;;;;;;;;;;;;;;;-144.99;nan;52121.97;5034667;28;20068;-70
2023/08/10 11:04:06;;;;;;;;;;;;;;;-144.99;nan;52138.28;5044354;28;19953;-70
2023/08/10 11:06:32;;;;;;;;;;;;;;;-144.99;nan;52252.44;5045811;28;20002;-69
2023/08/10 11:09:00;;;;;;;;;;;;;;;-144.99;nan;52240.19;5037909;28;19997;-70
2023/08/10 11:11:27;;;;;;;;;;;;;;;-144.99;nan;52158.66;5032387;28;20000;-70
2023/08/10 11:13:53;;;;;;;;;;;;;;;-144.99;nan;52134.22;5033443;28;19953;-69
2023/08/10 11:16:21;;;;;;;;;;;;;;;-144.99;nan;52126.06;5045972;28;19956;-69
2023/08/10 11:18:48;;;;;;;;;;;;;;;-144.99;nan;52130.13;5046781;28;19954;-71
2023/08/10 11:21:15;;;;;;;;;;;;;;;-144.99;nan;52111.78;5043260;28;20406;-70
2023/08/10 11:23:42;;;;;;;;;;;;;;;-144.99;nan;52117.91;5046586;28;19952;-70
2023/08/10 11:26:11;;;;;;;;;;;;;;;-144.99;nan;52191.28;5047207;28;20104;-70
2023/08/10 11:28:38;;;;;;;;;;;;;;;-144.99;nan;52117.91;4697121;28;9999989;-70
2023/08/10 11:31:05;;;;;;;;;;;;;;;-144.99;nan;52203.50;5046531;28;20519;-71
2023/08/10 11:33:31;;;;;;;;;;;;;;;-144.99;nan;52146.44;5045072;28;20018;-70
2023/08/10 11:35:58;;;;;;;;;;;;;;;-144.99;nan;52107.72;5045889;28;19948;-70
2023/08/10 11:38:25;;;;;;;;;;;;;;;-144.99;nan;52064.91;5044061;28;20042;-71
2023/08/10 11:40:52;;;;;;;;;;;;;;;-144.99;nan;52101.59;5039794;28;20438;-70
2023/08/10 11:43:22;;;;;;;;;;;;;;;-144.99;nan;52113.84;5040264;28;19989;-69
2023/08/10 11:45:49;;;;;;;;;;;;;;;-144.99;nan;52146.44;5052173;28;19965;-70
2023/08/10 11:48:19;;;;;;;;;;;;;;;-144.99;nan;52117.91;5047054;28;20003;-69
2023/08/10 11:50:46;;;;;;;;;;;;;;;-144.99;nan;52211.66;5039598;28;19953;-68
2023/08/10 11:53:14;;;;;;;;;;;;;;;-144.99;nan;52138.28;5043857;28;20022;-68
2023/08/10 11:55:44;;;;;;;;;;;;;;;-144.99;nan;52232.03;5047413;28;20364;-70
2023/08/10 11:58:13;;;;;;;;;;;;;;;-144.99;nan;52097.53;5047476;28;19953;-69
2023/08/10 12:00:41;;;;;;;;;;;;;;;-144.99;nan;52183.13;5039393;28;20086;-70
2023/08/10 12:03:11;;;;;;;;;;;;;;;-144.99;nan;52083.25;5040159;28;20399;-70
2023/08/10 12:05:42;;;;;;;;;;;;;;;-144.99;nan;52227.97;5039637;28;20396;-69
2023/08/10 12:08:10;;;;;;;;;;;;;;;-144.99;nan;52126.06;5043773;28;19950;-69
2023/08/10 12:10:37;;;;;;;;;;;;;;;-144.99;nan;52115.88;5049927;28;19945;-69
2023/08/10 12:13:04;;;;;;;;;;;;;;;-144.99;nan;52113.84;5050538;28;20034;-69
2023/08/10 12:15:31;;;;;;;;;;;;;;;-144.99;nan;52081.22;5050809;28;20363;-69
2023/08/10 12:17:59;;;;;;;;;;;;;;;-144.99;nan;52069.00;5049250;28;20009;-69
2023/08/10 12:20:26;;;;;;;;;;;;;;;-144.99;nan;52069.00;5045384;28;19944;-70
2023/08/10 12:22:53;;;;;;;;;;;;;;;-144.99;nan;52113.84;5050832;28;20013;-70
2023/08/10 12:25:20;;;;;;;;;;;;;;;-144.99;nan;52075.09;5050435;28;19953;-69
2023/08/10 12:27:47;;;;;;;;;;;;;;;-144.99;nan;52077.16;5046592;28;20464;-69
2023/08/10 12:30:13;;;;;;;;;;;;;;;-144.99;nan;52101.59;5046002;28;20077;-70
2023/08/10 12:32:40;;;;;;;;;;;;;;;-144.99;nan;52097.53;5050580;28;20046;-70
2023/08/10 12:35:08;;;;;;;;;;;;;;;-144.99;nan;52244.28;5038255;28;20162;-70
2023/08/10 12:37:35;;;;;;;;;;;;;;;-144.99;nan;52146.44;5050712;28;20415;-70
2023/08/10 12:40:01;;;;;;;;;;;;;;;-144.99;nan;52138.28;5039382;28;20472;-70
2023/08/10 12:42:27;;;;;;;;;;;;;;;-144.99;nan;52256.50;5050811;28;19954;-70
2023/08/10 12:44:54;;;;;;;;;;;;;;;-144.99;nan;52252.44;5048770;28;19997;-70
2023/08/10 12:47:21;;;;;;;;;;;;;;;-144.99;nan;52236.13;5048195;28;20452;-69
2023/08/10 12:49:47;;;;;;;;;;;;;;;-144.99;nan;52166.81;5044111;28;19966;-70
2023/08/10 12:52:15;;;;;;;;;;;;;;;-144.99;nan;52146.44;5040068;28;20403;-70
2023/08/10 12:54:42;;;;;;;;;;;;;;;-144.99;nan;52117.91;5042428;28;19996;-70
2023/08/10 12:57:08;;;;;;;;;;;;;;;-144.99;nan;52146.44;5049689;28;20371;-69
2023/08/10 12:59:34;;;;;;;;;;;;;;;-144.99;nan;52232.03;5047646;28;20446;-70
2023/08/10 13:02:01;;;;;;;;;;;;;;;-144.99;nan;52166.81;5035409;28;20803;-70
2023/08/10 13:04:28;;;;;;;;;;;;;;;-144.99;nan;52252.44;5045952;28;20489;-70
2023/08/10 13:06:54;;;;;;;;;;;;;;;-144.99;nan;52160.72;5050067;28;19955;-70
2023/08/10 13:09:22;;;;;;;;;;;;;;;-144.99;nan;52185.16;5049120;28;20398;-70
2023/08/10 13:11:49;;;;;;;;;;;;;;;-144.99;nan;52248.34;5043977;28;20307;-70
2023/08/10 13:14:15;;;;;;;;;;;;;;;-144.99;nan;52174.97;5042010;28;20383;-69
2023/08/10 13:16:43;;;;;;;;;;;;;;;-144.99;nan;52227.97;5050575;28;19993;-69
2023/08/10 13:19:09;;;;;;;;;;;;;;;-144.99;nan;52211.66;5050996;28;19994;-69
2023/08/10 13:21:36;;;;;;;;;;;;;;;-144.99;nan;52170.91;5045246;28;20055;-69
2023/08/10 13:24:03;;;;;;;;;;;;;;;-144.99;nan;52154.59;5046916;28;19939;-69
2023/08/10 13:26:31;;;;;;;;;;;;;;;-144.99;nan;52240.19;5047717;28;20066;-70
2023/08/10 13:28:57;;;;;;;;;;;;;;;-144.99;nan;52179.06;5045596;28;19995;-70
2023/08/10 13:31:24;;;;;;;;;;;;;;;-144.99;nan;52162.75;5050593;28;19965;-70
2023/08/10 13:33:50;;;;;;;;;;;;;;;-144.99;nan;52177.00;5049796;28;19941;-71
2023/08/10 13:36:17;;;;;;;;;;;;;;;-144.99;nan;52179.06;5046239;28;19950;-71
2023/08/10 13:38:43;;;;;;;;;;;;;;;-144.99;nan;52170.91;5047990;28;20037;-70
2023/08/10 13:41:09;;;;;;;;;;;;;;;-144.99;nan;52199.44;5040005;28;20402;-70
2023/08/10 13:43:38;;;;;;;;;;;;;;;-144.99;nan;52185.16;5040563;28;19945;-69
2023/08/10 13:46:04;;;;;;;;;;;;;;;-144.99;nan;52142.38;5042245;28;20068;-69
2023/08/10 13:48:33;;;;;;;;;;;;;;;-144.99;nan;52221.84;5049320;28;19945;-69
2023/08/10 13:50:59;;;;;;;;;;;;;;;-144.99;nan;52195.34;5036257;28;20389;-70
2023/08/10 13:53:26;;;;;;;;;;;;;;;-144.99;nan;52193.31;5049051;28;20027;-70
2023/08/10 13:55:52;;;;;;;;;;;;;;;-144.99;nan;52154.59;5047027;28;20392;-69
2023/08/10 13:58:19;;;;;;;;;;;;;;;-144.99;nan;52177.00;5049785;28;20007;-71
2023/08/10 14:00:46;;;;;;;;;;;;;;;-144.99;nan;52179.06;5046618;28;20000;-71
2023/08/10 14:03:13;;;;;;;;;;;;;;;-144.99;nan;52264.66;5038504;28;20043;-70
2023/08/10 14:05:40;;;;;;;;;;;;;;;-144.99;nan;52309.50;5042444;28;20352;-65
2023/08/10 14:08:07;;;;;;;;;;;;;;;-144.99;nan;52268.72;5047581;28;19965;-64
2023/08/10 14:10:33;;;;;;;;;;;;;;;-144.99;nan;52248.34;5047636;28;19982;-64
2023/08/10 14:13:00;;;;;;;;;;;;;;;-144.99;nan;52268.72;5040846;28;20006;-64
2023/08/10 14:15:26;;;;;;;;;;;;;;;-144.99;nan;52264.66;5048574;28;19945;-64
2023/08/10 14:17:54;;;;;;;;;;;;;;;-144.99;nan;52264.66;5047072;28;20037;-66
2023/08/10 14:20:21;;;;;;;;;;;;;;;-144.99;nan;52215.75;5045815;28;20318;-80
2023/08/10 14:22:48;;;;;;;;;;;;;;;-144.99;nan;52260.56;5047170;28;19960;-78
2023/08/10 14:25:14;;;;;;;;;;;;;;;-144.99;nan;52240.19;5041629;28;20397;-79
2023/08/10 14:27:41;;;;;;;;;;;;;;;-144.99;nan;52240.19;5052737;28;20013;-82
2023/08/10 14:30:08;;;;;;;;;;;;;;;-144.99;nan;52211.66;5052761;28;19996;-78
2023/08/10 14:32:35;;;;;;;;;;;;;;;-144.99;nan;52270.78;5039725;28;19971;-80
2023/08/10 14:35:03;;;;;;;;;;;;;;;-144.99;nan;52219.81;5041373;28;19947;-80
2023/08/10 14:37:29;;;;;;;;;;;;;;;-144.99;nan;52219.81;5047765;28;19940;-76
2023/08/10 14:39:58;;;;;;;;;;;;;;;-144.99;nan;52213.69;5039541;28;20421;-69
2023/08/10 14:42:24;;;;;;;;;;;;;;;-144.99;nan;52201.47;5041157;28;19969;-70
2023/08/10 14:44:51;;;;;;;;;;;;;;;-144.99;nan;52215.75;4340336;28;10000650;-71
2023/08/10 14:47:17;;;;;;;;;;;;;;;-144.99;nan;52232.03;5042892;28;20060;-70
2023/08/10 14:49:44;;;;;;;;;;;;;;;-144.99;nan;52232.03;5038953;28;19992;-71
2023/08/10 14:52:12;;;;;;;;;;;;;;;-144.99;nan;52227.97;5034934;28;20385;-70
2023/08/10 14:54:38;;;;;;;;;;;;;;;-144.99;nan;52242.22;5039946;28;20041;-71
2023/08/10 14:57:05;;;;;;;;;;;;;;;-144.99;nan;52252.44;5037786;28;20044;-71
2023/08/10 14:59:31;;;;;;;;;;;;;;;-144.99;nan;52248.34;5043890;28;19980;-70
2023/08/10 15:01:58;;;;;;;;;;;;;;;-144.99;nan;52240.19;5037517;28;20508;-71
2023/08/10 15:04:24;;;;;;;;;;;;;;;-144.99;nan;52248.34;5037181;28;19941;-70
2023/08/10 15:06:51;;;;;;;;;;;;;;;-144.99;nan;52211.66;5039251;28;19966;-71
2023/08/10 15:09:21;;;;;;;;;;;;;;;-144.99;nan;52223.88;5045575;28;20217;-69
2023/08/10 15:11:47;;;;;;;;;;;;;;;-144.99;nan;52211.66;5041102;28;19961;-70
2023/08/10 15:14:14;;;;;;;;;;;;;;;-144.99;nan;52266.69;5042311;28;20492;-71
2023/08/10 15:16:40;;;;;;;;;;;;;;;-144.99;nan;52270.78;5039066;28;19999;-69
2023/08/10 15:19:07;;;;;;;;;;;;;;;-144.99;nan;52213.69;5041856;28;19948;-69
2023/08/10 15:21:33;;;;;;;;;;;;;;;-144.99;nan;52256.50;5033994;28;20050;-69
2023/08/10 15:24:00;;;;;;;;;;;;;;;-144.99;nan;52291.16;5033939;28;19950;-69
2023/08/10 15:26:27;;;;;;;;;;;;;;;-144.99;nan;52260.56;5041132;28;19954;-71
2023/08/10 15:28:54;;;;;;;;;;;;;;;-144.99;nan;52258.53;5034955;28;19951;-70
2023/08/10 15:31:21;;;;;;;;;;;;;;;-144.99;nan;52232.03;5044015;28;20073;-70
2023/08/10 15:33:48;;;;;;;;;;;;;;;-144.99;nan;52268.72;5044071;28;19956;-70
2023/08/10 15:36:15;;;;;;;;;;;;;;;-144.99;nan;52260.56;5047755;28;20071;-70
2023/08/10 15:38:41;;;;;;;;;;;;;;;-144.99;nan;52276.88;5048203;28;20557;-71
2023/08/10 15:41:08;;;;;;;;;;;;;;;-144.99;nan;52264.66;5041932;28;20034;-70
2023/08/10 15:43:35;;;;;;;;;;;;;;;-144.99;nan;52293.19;5033670;28;20068;-70
2023/08/10 15:46:02;;;;;;;;;;;;;;;-144.99;nan;52248.34;5044029;28;19949;-70
2023/08/10 15:48:28;;;;;;;;;;;;;;;-144.99;nan;52278.91;5045825;28;20017;-71
2023/08/10 15:50:55;;;;;;;;;;;;;;;-144.99;nan;52266.69;5047011;28;20004;-71
2023/08/10 15:53:21;;;;;;;;;;;;;;;-144.99;nan;52268.72;5039948;28;20039;-69
2023/08/10 15:55:48;;;;;;;;;;;;;;;-144.99;nan;52248.34;5044214;28;19943;-68
2023/08/10 15:58:15;;;;;;;;;;;;;;;-144.99;nan;52297.25;5031464;28;20316;-67
2023/08/10 16:00:42;;;;;;;;;;;;;;;-144.99;nan;52309.50;5044761;28;19949;-68
2023/08/10 16:03:09;;;;;;;;;;;;;;;-144.99;nan;52329.88;5040837;28;19959;-67
2023/08/10 16:05:36;;;;;;;;;;;;;;;-144.99;nan;52319.69;5033641;28;20170;-67
2023/08/10 16:08:02;;;;;;;;;;;;;;;-144.99;nan;52289.13;5044834;28;20056;-68
2023/08/10 16:10:30;;;;;;;;;;;;;;;-144.99;nan;52301.34;5042289;28;19943;-67
2023/08/10 16:13:02;;;;;;;;;;;;;;;-144.99;nan;52354.34;5032236;28;20056;-67
2023/08/10 16:15:28;;;;;;;;;;;;;;;-144.99;nan;52321.72;5042851;28;20067;-68
2023/08/10 16:17:56;;;;;;;;;;;;;;;-144.99;nan;52285.03;5042812;28;20445;-68
2023/08/10 16:20:23;;;;;;;;;;;;;;;-144.99;nan;52313.56;5041889;28;19949;-68
2023/08/10 16:22:49;;;;;;;;;;;;;;;-144.99;nan;52321.72;5033721;28;19969;-68
2023/08/10 16:25:16;;;;;;;;;;;;;;;-144.99;nan;52280.97;5041373;28;20011;-68
2023/08/10 16:27:42;;;;;;;;;;;;;;;-144.99;nan;52287.06;5040883;28;20082;-68
2023/08/10 16:30:09;;;;;;;;;;;;;;;-144.99;nan;52325.81;5034371;28;19954;-68
2023/08/10 16:32:36;;;;;;;;;;;;;;;-144.99;nan;52311.53;5045326;28;20020;-68
2023/08/10 16:35:04;;;;;;;;;;;;;;;-144.99;nan;52299.31;5042488;28;19947;-68
2023/08/10 16:37:31;;;;;;;;;;;;;;;-144.99;nan;52297.25;5041684;28;19965;-68
2023/08/10 16:39:57;;;;;;;;;;;;;;;-144.99;nan;52305.41;5048541;28;20038;-68
2023/08/10 16:42:24;;;;;;;;;;;;;;;-144.99;nan;52315.59;5045222;28;20099;-68
2023/08/10 16:44:50;;;;;;;;;;;;;;;-144.99;nan;52309.50;5037250;28;19950;-68